Terminal Aerodrome Forecast
Issued by NWS

Home | Current Version | Previous Version | Text Only | Print | Product List | Glossary On
Versions: 1 2 3 4 5 6 7 8 9 10 11 12
000
FTAK31 PAJN 062300
TAFAPG
TAF
PAPG 062322Z 0700/0724 06006KT P6SM FEW035 SCT200
     FM070400 VRB04KT P6SM SCT200
     FM071700 06007KT P6SM BKN100
      AMD LTD TO CLD VIS AND WIND 0706/0715=

USA.gov is the U.S. government's official web portal to all federal, state and local government web resources and services.